ADDS METAR Data INFO
IDs: Format: Raw Decoded Include TAF

Data at: 1749 UTC 15 Dec 2017

KDVO 151735Z AUTO 16004KT 5SM HZ CLR 10/06 A3020 RMK AO2
KDVO 151715Z AUTO 00000KT 5SM BR CLR 07/05 A3020 RMK AO2
KDVO 151655Z AUTO 00000KT 4SM BR CLR 06/04 A3020 RMK AO2
KDVO 151635Z AUTO 00000KT 3SM BR CLR 04/03 A3020 RMK AO2
KDVO 151615Z AUTO 00000KT 3SM BR CLR 04/03 A3020 RMK AO2
KDVO 151555Z AUTO 00000KT 3SM BR CLR 04/03 A3020 RMK AO2
KDVO 151535Z AUTO 36004KT 3SM BR CLR 03/02 A3020 RMK AO2
KDVO 151515Z AUTO 00000KT 3SM BR CLR 04/02 A3020 RMK AO2
KDVO 151455Z AUTO 19006KT 4SM BR CLR 05/04 A3019 RMK AO2
KDVO 151435Z AUTO 17005KT 4SM BR CLR 05/04 A3019 RMK AO2
KDVO 151415Z AUTO 20006KT 3SM BR CLR 03/03 A3019 RMK AO2
KDVO 151355Z AUTO 00000KT 4SM BR CLR 04/03 A3019 RMK AO2
KDVO 151335Z AUTO 00000KT 4SM BR CLR 04/03 A3019 RMK AO2
KDVO 151315Z AUTO 18005KT 4SM BR CLR 04/03 A3019 RMK AO2
KDVO 151255Z AUTO 17004KT 4SM BR CLR 03/03 A3018 RMK AO2
KDVO 151235Z AUTO 00000KT 4SM BR CLR 02/02 A3018 RMK AO2
KDVO 151215Z AUTO 14004KT 4SM BR CLR 03/02 A3019 RMK AO2
KDVO 151155Z AUTO 00000KT 4SM BR CLR 02/01 A3020 RMK AO2
KDVO 151135Z AUTO 00000KT 3SM BR CLR 02/01 A3020 RMK AO2
KDVO 151115Z AUTO 00000KT 4SM BR CLR 01/M00 A3021 RMK AO2
KDVO 151055Z AUTO 00000KT 5SM BR CLR 02/01 A3020 RMK AO2
KDVO 151035Z AUTO 00000KT 4SM BR CLR 02/02 A3020 RMK AO2
KDVO 151015Z AUTO 00000KT 5SM BR CLR 02/01 A3020 RMK AO2
KDVO 150955Z AUTO 00000KT 5SM BR CLR 03/02 A3020 RMK AO2
KDVO 150935Z AUTO 19004KT 7SM CLR 05/03 A3019 RMK AO2
KDVO 150915Z AUTO 17004KT 6SM BR CLR 05/04 A3019 RMK AO2
KDVO 150855Z AUTO 17004KT 7SM CLR 05/03 A3019 RMK AO2
KDVO 150835Z AUTO 18007KT 8SM CLR 05/03 A3019 RMK AO2
KDVO 150815Z AUTO 18009KT 8SM CLR 05/03 A3019 RMK AO2
KDVO 150755Z AUTO 19006KT 10SM CLR 05/03 A3019 RMK AO2
KDVO 150735Z AUTO 17007KT 9SM CLR 06/03 A3019 RMK AO2
KDVO 150715Z AUTO 17008KT 10SM CLR 05/03 A3019 RMK AO2
KDVO 150655Z AUTO 18007KT 10SM CLR 05/03 A3018 RMK AO2
KDVO 150635Z AUTO 19004KT 10SM CLR 04/03 A3018 RMK AO2
KDVO 150615Z AUTO 00000KT 6SM BR CLR 03/02 A3018 RMK AO2
KDVO 150555Z AUTO 00000KT 10SM CLR 04/01 A3018 RMK AO2
KDVO 150535Z AUTO 21003KT 10SM CLR 06/03 A3018 RMK AO2
KDVO 150515Z AUTO 00000KT 10SM CLR 04/02 A3017 RMK AO2
KDVO 150455Z AUTO 00000KT 10SM CLR 04/02 A3017 RMK AO2
KDVO 150435Z AUTO 19005KT 10SM CLR 07/04 A3016 RMK AO2
KDVO 150415Z AUTO 19005KT 10SM CLR 07/04 A3016 RMK AO2
KDVO 150355Z AUTO 20004KT 10SM CLR 07/04 A3016 RMK AO2
KDVO 150335Z AUTO 18005KT 10SM CLR 07/04 A3015 RMK AO2
KDVO 150315Z AUTO 00000KT 10SM CLR 07/03 A3015 RMK AO2
KDVO 150255Z AUTO 00000KT 10SM CLR 07/03 A3015 RMK AO2
KDVO 150235Z AUTO 19003KT 10SM CLR 09/05 A3015 RMK AO2
KDVO 150215Z AUTO 00000KT 10SM CLR 09/04 A3014 RMK AO2
KDVO 150155Z AUTO 18006KT 10SM CLR 10/04 A3013 RMK AO2
KDVO 150135Z AUTO 16004KT 10SM CLR 10/04 A3013 RMK AO2
KDVO 150115Z AUTO 20004KT 10SM CLR 11/04 A3012 RMK AO2
KDVO 150055Z AUTO 22003KT 9SM CLR 13/05 A3012 RMK AO2
KDVO 150035Z AUTO 24003KT 9SM CLR 14/04 A3012 RMK AO2
KDVO 150015Z AUTO 23004KT 10SM CLR 15/04 A3011 RMK AO2
KDVO 142355Z AUTO 20006KT 10SM CLR 16/04 A3011 RMK AO2
KDVO 142335Z AUTO 19006KT 10SM CLR 17/04 A3011 RMK AO2
KDVO 142315Z AUTO 16005KT 10SM CLR 17/04 A3011 RMK AO2
KDVO 142255Z AUTO 13005KT 10SM CLR 17/03 A3010 RMK AO2
KDVO 142235Z AUTO 13006KT 10SM CLR 17/04 A3010 RMK AO2
KDVO 142215Z AUTO 12006KT 10SM CLR 17/03 A3010 RMK AO2
KDVO 142155Z AUTO 14006KT 10SM CLR 17/04 A3010 RMK AO2
KDVO 142135Z AUTO 15007KT 10SM CLR 18/03 A3010 RMK AO2
KDVO 142115Z AUTO 14006KT 10SM CLR 17/03 A3011 RMK AO2
KDVO 142055Z AUTO 15006KT 10SM CLR 17/02 A3011 RMK AO2
KDVO 142035Z AUTO 14008KT 10SM CLR 17/02 A3011 RMK AO2
KDVO 142015Z AUTO 16006KT 10SM CLR 17/02 A3012 RMK AO2
KDVO 141955Z AUTO 16007KT 10SM CLR 16/02 A3012 RMK AO2
KDVO 141935Z AUTO VRB06KT 10SM CLR 16/03 A3013 RMK AO2
KDVO 141915Z AUTO 14005KT 10SM CLR 15/04 A3013 RMK AO2
KDVO 141855Z AUTO 20005KT 10SM CLR 14/04 A3014 RMK AO2
KDVO 141835Z AUTO 17003KT 10SM CLR 12/07 A3014 RMK AO2
KDVO 141815Z AUTO 00000KT 10SM CLR 11/06 A3015 RMK AO2
KDVO 141755Z AUTO 00000KT 10SM CLR 09/06 A3015 RMK AO2
KDVO 141735Z AUTO 00000KT 10SM CLR 08/06 A3015 RMK AO2
KDVO 141715Z AUTO 00000KT 10SM CLR 06/05 A3014 RMK AO2
KDVO 141655Z AUTO 00000KT 9SM CLR 05/05 A3014 RMK AO2
KDVO 141635Z AUTO 00000KT 4SM BR CLR 03/03 A3012 RMK AO2
KDVO 141615Z AUTO 00000KT 1/4SM FG VV002 01/01 A3012 RMK AO2
KDVO 141555Z AUTO 00000KT 3/4SM BR VV005 00/00 A3012 RMK AO2
KDVO 141535Z AUTO 00000KT M1/4SM FZFG VV000 M01/M01 A3011 RMK AO2
KDVO 141515Z AUTO 00000KT 1SM BR CLR 00/00 A3011 RMK AO2
KDVO 141455Z AUTO 00000KT 1/2SM BR VV005 01/01 A3010 RMK AO2
KDVO 141435Z AUTO 00000KT 3SM BR CLR 01/01 A3010 RMK AO2
KDVO 141415Z AUTO 00000KT 1/4SM FG VV002 01/01 A3009 RMK AO2
KDVO 141355Z AUTO 00000KT M1/4SM FG VV000 01/01 A3008 RMK AO2
KDVO 141335Z AUTO 00000KT 5SM BR CLR 01/01 A3008 RMK AO2
KDVO 141315Z AUTO 00000KT 3SM BR CLR 02/01 A3008 RMK AO2
KDVO 141255Z AUTO 00000KT 3/4SM BR VV005 02/02 A3008 RMK AO2
KDVO 141235Z AUTO 00000KT 3/4SM BR VV005 02/01 A3007 RMK AO2
KDVO 141210Z AUTO 00000KT 1/2SM BR VV005 02/01 A3007 RMK AO2
KDVO 141155Z AUTO 00000KT 5SM BR CLR 01/01 A3007 RMK AO2
KDVO 141135Z AUTO 00000KT 1 3/4SM BR CLR 02/02 A3007 RMK AO2
KDVO 141115Z AUTO 00000KT 6SM BR CLR 01/01 A3008 RMK AO2
KDVO 141055Z AUTO 00000KT 7SM SCT001 01/00 A3008 RMK AO2
KDVO 141035Z AUTO 00000KT M1/4SM FZFG VV000 M00/M00 A3008 RMK AO2
KDVO 141015Z AUTO 00000KT 1/4SM FG VV002 02/02 A3008 RMK AO2
KDVO 140955Z AUTO 00000KT 2 1/2SM BR CLR 01/01 A3008 RMK AO2
KDVO 140935Z AUTO 00000KT 1 1/2SM BR CLR 02/01 A3008 RMK AO2
KDVO 140915Z AUTO 00000KT 4SM BR CLR 01/00 A3008 RMK AO2
KDVO 140855Z AUTO 00000KT 4SM BR CLR 03/02 A3008 RMK AO2
KDVO 140835Z AUTO 00000KT 8SM CLR 02/02 A3008 RMK AO2
KDVO 140815Z AUTO 00000KT 1/4SM FG BKN043 01/01 A3008 RMK AO2
KDVO 140755Z AUTO 00000KT 6SM BR FEW042 03/03 A3009 RMK AO2
KDVO 140735Z AUTO 00000KT 5SM BR FEW041 03/02 A3009 RMK AO2
KDVO 140715Z AUTO 02004KT 1 1/2SM BR CLR 03/02 A3009 RMK AO2
KDVO 140655Z AUTO 31003KT 5SM BR FEW038 02/02 A3009 RMK AO2
KDVO 140635Z AUTO 00000KT 3SM BR SCT039 03/03 A3009 RMK AO2
KDVO 140615Z AUTO 00000KT 7SM FEW038 04/03 A3009 RMK AO2
KDVO 140555Z AUTO 00000KT 6SM BR SCT039 04/02 A3009 RMK AO2